sensor_id;sensor_type;location;lat;lon;timestamp;P1;durP1;ratioP1;P2;durP2;ratioP2
43504;SDS011;29098;48.184;16.298;2024-03-08T00:00:26;52.80;;;25.85;;
43504;SDS011;29098;48.184;16.298;2024-03-08T00:02:52;60.28;;;27.25;;
43504;SDS011;29098;48.184;16.298;2024-03-08T00:05:19;57.65;;;28.35;;
43504;SDS011;29098;48.184;16.298;2024-03-08T00:07:45;53.65;;;26.45;;
43504;SDS011;29098;48.184;16.298;2024-03-08T00:10:12;60.03;;;28.13;;
43504;SDS011;29098;48.184;16.298;2024-03-08T00:12:41;56.15;;;26.75;;
43504;SDS011;29098;48.184;16.298;2024-03-08T00:15:09;58.35;;;28.27;;
43504;SDS011;29098;48.184;16.298;2024-03-08T00:17:35;59.00;;;29.05;;
43504;SDS011;29098;48.184;16.298;2024-03-08T00:20:01;59.30;;;28.63;;
43504;SDS011;29098;48.184;16.298;2024-03-08T00:22:28;60.30;;;28.48;;
43504;SDS011;29098;48.184;16.298;2024-03-08T00:24:55;58.38;;;28.98;;
43504;SDS011;29098;48.184;16.298;2024-03-08T00:27:21;60.38;;;31.25;;
43504;SDS011;29098;48.184;16.298;2024-03-08T00:29:47;59.70;;;29.65;;
43504;SDS011;29098;48.184;16.298;2024-03-08T00:32:12;63.08;;;28.23;;
43504;SDS011;29098;48.184;16.298;2024-03-08T00:34:38;58.40;;;28.20;;
43504;SDS011;29098;48.184;16.298;2024-03-08T00:37:03;54.40;;;26.77;;
43504;SDS011;29098;48.184;16.298;2024-03-08T00:39:29;59.75;;;28.00;;
43504;SDS011;29098;48.184;16.298;2024-03-08T00:41:55;61.80;;;28.80;;
43504;SDS011;29098;48.184;16.298;2024-03-08T00:44:20;52.28;;;26.33;;
43504;SDS011;29098;48.184;16.298;2024-03-08T00:46:45;55.88;;;28.52;;
43504;SDS011;29098;48.184;16.298;2024-03-08T00:49:13;66.13;;;31.08;;
43504;SDS011;29098;48.184;16.298;2024-03-08T00:51:38;61.63;;;32.13;;
43504;SDS011;29098;48.184;16.298;2024-03-08T00:54:04;62.70;;;28.00;;
43504;SDS011;29098;48.184;16.298;2024-03-08T00:56:29;63.33;;;29.55;;
43504;SDS011;29098;48.184;16.298;2024-03-08T00:58:55;65.07;;;30.65;;
43504;SDS011;29098;48.184;16.298;2024-03-08T01:01:20;65.05;;;30.08;;
43504;SDS011;29098;48.184;16.298;2024-03-08T01:03:46;65.43;;;31.40;;
43504;SDS011;29098;48.184;16.298;2024-03-08T01:06:11;59.72;;;29.02;;
43504;SDS011;29098;48.184;16.298;2024-03-08T01:08:37;54.67;;;27.85;;
43504;SDS011;29098;48.184;16.298;2024-03-08T01:11:06;71.30;;;31.05;;
43504;SDS011;29098;48.184;16.298;2024-03-08T01:13:31;59.40;;;31.88;;
43504;SDS011;29098;48.184;16.298;2024-03-08T01:15:57;57.55;;;26.58;;
43504;SDS011;29098;48.184;16.298;2024-03-08T01:18:22;66.05;;;28.75;;
43504;SDS011;29098;48.184;16.298;2024-03-08T01:20:48;61.50;;;26.83;;
43504;SDS011;29098;48.184;16.298;2024-03-08T01:23:13;62.85;;;29.90;;
43504;SDS011;29098;48.184;16.298;2024-03-08T01:25:39;62.05;;;29.83;;
43504;SDS011;29098;48.184;16.298;2024-03-08T01:28:04;64.35;;;31.55;;
43504;SDS011;29098;48.184;16.298;2024-03-08T01:30:30;58.60;;;28.75;;
43504;SDS011;29098;48.184;16.298;2024-03-08T01:32:57;61.35;;;29.10;;
43504;SDS011;29098;48.184;16.298;2024-03-08T01:35:23;55.17;;;28.80;;
43504;SDS011;29098;48.184;16.298;2024-03-08T01:37:49;55.70;;;26.98;;
43504;SDS011;29098;48.184;16.298;2024-03-08T01:40:14;56.35;;;28.27;;
43504;SDS011;29098;48.184;16.298;2024-03-08T01:42:41;57.33;;;27.25;;
43504;SDS011;29098;48.184;16.298;2024-03-08T01:45:07;56.38;;;27.15;;
43504;SDS011;29098;48.184;16.298;2024-03-08T01:47:34;53.95;;;27.55;;
43504;SDS011;29098;48.184;16.298;2024-03-08T01:50:00;57.22;;;28.85;;
43504;SDS011;29098;48.184;16.298;2024-03-08T01:52:31;58.70;;;28.75;;
43504;SDS011;29098;48.184;16.298;2024-03-08T01:55:02;56.78;;;26.67;;
43504;SDS011;29098;48.184;16.298;2024-03-08T01:57:32;55.58;;;29.50;;
43504;SDS011;29098;48.184;16.298;2024-03-08T02:00:01;61.15;;;29.17;;
43504;SDS011;29098;48.184;16.298;2024-03-08T02:02:31;54.78;;;26.00;;
43504;SDS011;29098;48.184;16.298;2024-03-08T02:04:59;57.25;;;27.20;;
43504;SDS011;29098;48.184;16.298;2024-03-08T02:07:25;57.08;;;27.55;;
43504;SDS011;29098;48.184;16.298;2024-03-08T02:09:51;56.05;;;27.83;;
43504;SDS011;29098;48.184;16.298;2024-03-08T02:12:16;57.97;;;27.65;;
43504;SDS011;29098;48.184;16.298;2024-03-08T02:14:42;55.55;;;27.40;;
43504;SDS011;29098;48.184;16.298;2024-03-08T02:17:09;59.72;;;29.63;;
43504;SDS011;29098;48.184;16.298;2024-03-08T02:19:34;50.63;;;27.58;;
43504;SDS011;29098;48.184;16.298;2024-03-08T02:22:01;57.85;;;27.27;;
43504;SDS011;29098;48.184;16.298;2024-03-08T02:24:29;56.72;;;30.33;;
43504;SDS011;29098;48.184;16.298;2024-03-08T02:26:55;54.85;;;27.75;;
43504;SDS011;29098;48.184;16.298;2024-03-08T02:29:21;62.90;;;29.95;;
43504;SDS011;29098;48.184;16.298;2024-03-08T02:31:50;58.83;;;33.00;;
43504;SDS011;29098;48.184;16.298;2024-03-08T02:34:16;56.90;;;28.63;;
43504;SDS011;29098;48.184;16.298;2024-03-08T02:36:42;58.33;;;29.48;;
43504;SDS011;29098;48.184;16.298;2024-03-08T02:39:07;59.85;;;28.73;;
43504;SDS011;29098;48.184;16.298;2024-03-08T02:41:33;60.53;;;29.73;;
43504;SDS011;29098;48.184;16.298;2024-03-08T02:43:58;57.70;;;28.95;;
43504;SDS011;29098;48.184;16.298;2024-03-08T02:46:25;60.70;;;30.40;;
43504;SDS011;29098;48.184;16.298;2024-03-08T02:48:50;57.88;;;26.20;;
43504;SDS011;29098;48.184;16.298;2024-03-08T02:51:15;55.88;;;28.38;;
43504;SDS011;29098;48.184;16.298;2024-03-08T02:53:41;67.82;;;29.95;;
43504;SDS011;29098;48.184;16.298;2024-03-08T02:56:08;55.75;;;28.63;;
43504;SDS011;29098;48.184;16.298;2024-03-08T02:58:35;60.40;;;29.08;;
43504;SDS011;29098;48.184;16.298;2024-03-08T03:01:01;58.15;;;29.77;;
43504;SDS011;29098;48.184;16.298;2024-03-08T03:03:26;61.85;;;29.42;;
43504;SDS011;29098;48.184;16.298;2024-03-08T03:05:52;58.55;;;30.00;;
43504;SDS011;29098;48.184;16.298;2024-03-08T03:08:20;62.70;;;29.25;;
43504;SDS011;29098;48.184;16.298;2024-03-08T03:10:46;57.80;;;29.85;;
43504;SDS011;29098;48.184;16.298;2024-03-08T03:13:11;61.83;;;31.52;;
43504;SDS011;29098;48.184;16.298;2024-03-08T03:15:37;61.47;;;30.02;;
43504;SDS011;29098;48.184;16.298;2024-03-08T03:18:02;50.35;;;28.00;;
43504;SDS011;29098;48.184;16.298;2024-03-08T03:20:28;61.80;;;29.02;;
43504;SDS011;29098;48.184;16.298;2024-03-08T03:23:05;63.13;;;28.58;;
43504;SDS011;29098;48.184;16.298;2024-03-08T03:25:33;54.78;;;26.27;;
43504;SDS011;29098;48.184;16.298;2024-03-08T03:28:00;58.88;;;30.70;;
43504;SDS011;29098;48.184;16.298;2024-03-08T03:30:26;62.72;;;31.35;;
43504;SDS011;29098;48.184;16.298;2024-03-08T03:32:52;61.47;;;30.02;;
43504;SDS011;29098;48.184;16.298;2024-03-08T03:35:19;58.90;;;30.05;;
43504;SDS011;29098;48.184;16.298;2024-03-08T03:37:48;60.58;;;28.75;;
43504;SDS011;29098;48.184;16.298;2024-03-08T03:40:30;68.35;;;32.00;;
43504;SDS011;29098;48.184;16.298;2024-03-08T03:42:56;57.65;;;28.90;;
43504;SDS011;29098;48.184;16.298;2024-03-08T03:45:22;64.50;;;29.92;;
43504;SDS011;29098;48.184;16.298;2024-03-08T03:47:47;60.88;;;28.73;;
43504;SDS011;29098;48.184;16.298;2024-03-08T03:50:13;60.25;;;29.50;;
43504;SDS011;29098;48.184;16.298;2024-03-08T03:52:38;59.13;;;28.10;;
43504;SDS011;29098;48.184;16.298;2024-03-08T03:55:04;56.72;;;27.75;;
43504;SDS011;29098;48.184;16.298;2024-03-08T03:57:30;65.47;;;30.50;;
43504;SDS011;29098;48.184;16.298;2024-03-08T03:59:56;62.33;;;29.48;;
43504;SDS011;29098;48.184;16.298;2024-03-08T04:02:23;62.05;;;32.10;;
43504;SDS011;29098;48.184;16.298;2024-03-08T04:04:51;58.85;;;29.23;;
43504;SDS011;29098;48.184;16.298;2024-03-08T04:07:17;60.38;;;28.30;;
43504;SDS011;29098;48.184;16.298;2024-03-08T04:09:42;66.25;;;32.72;;
43504;SDS011;29098;48.184;16.298;2024-03-08T04:12:08;64.60;;;31.17;;
43504;SDS011;29098;48.184;16.298;2024-03-08T04:14:34;62.90;;;30.65;;
43504;SDS011;29098;48.184;16.298;2024-03-08T04:17:00;65.80;;;32.15;;
43504;SDS011;29098;48.184;16.298;2024-03-08T04:19:26;61.20;;;30.98;;
43504;SDS011;29098;48.184;16.298;2024-03-08T04:21:53;57.55;;;30.25;;
43504;SDS011;29098;48.184;16.298;2024-03-08T04:24:18;63.75;;;30.63;;
43504;SDS011;29098;48.184;16.298;2024-03-08T04:26:45;60.80;;;31.35;;
43504;SDS011;29098;48.184;16.298;2024-03-08T04:29:11;57.40;;;27.83;;
43504;SDS011;29098;48.184;16.298;2024-03-08T04:31:39;61.38;;;31.25;;
43504;SDS011;29098;48.184;16.298;2024-03-08T04:34:05;57.38;;;29.98;;
43504;SDS011;29098;48.184;16.298;2024-03-08T04:36:30;65.10;;;33.03;;
43504;SDS011;29098;48.184;16.298;2024-03-08T04:38:56;59.38;;;30.40;;
43504;SDS011;29098;48.184;16.298;2024-03-08T04:41:21;62.17;;;31.13;;
43504;SDS011;29098;48.184;16.298;2024-03-08T04:43:48;58.47;;;30.52;;
43504;SDS011;29098;48.184;16.298;2024-03-08T04:46:14;61.28;;;31.15;;
43504;SDS011;29098;48.184;16.298;2024-03-08T04:48:39;58.58;;;31.42;;
43504;SDS011;29098;48.184;16.298;2024-03-08T04:51:07;58.95;;;28.85;;
43504;SDS011;29098;48.184;16.298;2024-03-08T04:53:33;77.45;;;37.47;;
43504;SDS011;29098;48.184;16.298;2024-03-08T04:55:59;70.97;;;36.22;;
43504;SDS011;29098;48.184;16.298;2024-03-08T04:58:25;64.30;;;31.83;;
43504;SDS011;29098;48.184;16.298;2024-03-08T05:00:50;55.80;;;28.27;;
43504;SDS011;29098;48.184;16.298;2024-03-08T05:03:15;58.53;;;27.38;;
43504;SDS011;29098;48.184;16.298;2024-03-08T05:05:41;56.83;;;29.42;;
43504;SDS011;29098;48.184;16.298;2024-03-08T05:08:06;57.92;;;31.63;;
43504;SDS011;29098;48.184;16.298;2024-03-08T05:10:32;58.63;;;29.23;;
43504;SDS011;29098;48.184;16.298;2024-03-08T05:12:57;66.05;;;31.83;;
43504;SDS011;29098;48.184;16.298;2024-03-08T05:15:23;55.53;;;28.33;;
43504;SDS011;29098;48.184;16.298;2024-03-08T05:17:48;65.93;;;29.70;;
43504;SDS011;29098;48.184;16.298;2024-03-08T05:20:14;58.70;;;27.60;;
43504;SDS011;29098;48.184;16.298;2024-03-08T05:22:42;59.95;;;28.75;;
43504;SDS011;29098;48.184;16.298;2024-03-08T05:25:07;60.03;;;28.63;;
43504;SDS011;29098;48.184;16.298;2024-03-08T05:27:34;59.80;;;29.92;;
43504;SDS011;29098;48.184;16.298;2024-03-08T05:30:01;58.63;;;28.35;;
43504;SDS011;29098;48.184;16.298;2024-03-08T05:32:30;63.83;;;29.85;;
43504;SDS011;29098;48.184;16.298;2024-03-08T05:34:56;53.38;;;28.00;;
43504;SDS011;29098;48.184;16.298;2024-03-08T05:37:22;54.30;;;29.65;;
43504;SDS011;29098;48.184;16.298;2024-03-08T05:39:47;61.80;;;29.50;;
43504;SDS011;29098;48.184;16.298;2024-03-08T05:42:13;58.30;;;29.35;;
43504;SDS011;29098;48.184;16.298;2024-03-08T05:44:38;65.65;;;29.27;;
43504;SDS011;29098;48.184;16.298;2024-03-08T05:47:05;60.72;;;30.83;;
43504;SDS011;29098;48.184;16.298;2024-03-08T05:49:32;57.63;;;29.70;;
43504;SDS011;29098;48.184;16.298;2024-03-08T05:51:57;60.33;;;30.35;;
43504;SDS011;29098;48.184;16.298;2024-03-08T05:54:22;59.03;;;29.95;;
43504;SDS011;29098;48.184;16.298;2024-03-08T05:56:49;63.83;;;29.88;;
43504;SDS011;29098;48.184;16.298;2024-03-08T05:59:17;65.03;;;28.27;;
43504;SDS011;29098;48.184;16.298;2024-03-08T06:01:43;59.83;;;27.85;;
43504;SDS011;29098;48.184;16.298;2024-03-08T06:04:08;59.75;;;28.48;;
43504;SDS011;29098;48.184;16.298;2024-03-08T06:06:36;66.95;;;29.90;;
43504;SDS011;29098;48.184;16.298;2024-03-08T06:09:02;62.00;;;28.30;;
43504;SDS011;29098;48.184;16.298;2024-03-08T06:11:34;59.50;;;30.23;;
43504;SDS011;29098;48.184;16.298;2024-03-08T06:14:00;64.22;;;30.90;;
43504;SDS011;29098;48.184;16.298;2024-03-08T06:16:28;57.03;;;30.70;;
43504;SDS011;29098;48.184;16.298;2024-03-08T06:18:57;56.63;;;29.58;;
43504;SDS011;29098;48.184;16.298;2024-03-08T06:21:23;61.38;;;29.85;;
43504;SDS011;29098;48.184;16.298;2024-03-08T06:23:51;64.30;;;29.92;;
43504;SDS011;29098;48.184;16.298;2024-03-08T06:26:19;63.35;;;30.98;;
43504;SDS011;29098;48.184;16.298;2024-03-08T06:28:45;60.28;;;28.67;;
43504;SDS011;29098;48.184;16.298;2024-03-08T06:31:10;63.92;;;31.30;;
43504;SDS011;29098;48.184;16.298;2024-03-08T06:33:36;58.55;;;29.40;;
43504;SDS011;29098;48.184;16.298;2024-03-08T06:36:02;58.33;;;28.95;;
43504;SDS011;29098;48.184;16.298;2024-03-08T06:38:28;62.92;;;32.03;;
43504;SDS011;29098;48.184;16.298;2024-03-08T06:40:53;64.10;;;30.38;;
43504;SDS011;29098;48.184;16.298;2024-03-08T06:43:19;54.92;;;27.45;;
43504;SDS011;29098;48.184;16.298;2024-03-08T06:45:45;60.13;;;30.30;;
43504;SDS011;29098;48.184;16.298;2024-03-08T06:48:16;50.63;;;27.10;;
43504;SDS011;29098;48.184;16.298;2024-03-08T06:50:46;57.60;;;30.05;;
43504;SDS011;29098;48.184;16.298;2024-03-08T06:53:12;62.63;;;30.48;;
43504;SDS011;29098;48.184;16.298;2024-03-08T06:55:38;63.70;;;30.63;;
43504;SDS011;29098;48.184;16.298;2024-03-08T06:58:04;54.63;;;29.05;;
43504;SDS011;29098;48.184;16.298;2024-03-08T07:00:31;51.65;;;28.73;;
43504;SDS011;29098;48.184;16.298;2024-03-08T07:02:57;65.90;;;30.05;;
43504;SDS011;29098;48.184;16.298;2024-03-08T07:05:26;57.90;;;28.52;;
43504;SDS011;29098;48.184;16.298;2024-03-08T07:07:52;63.67;;;31.13;;
43504;SDS011;29098;48.184;16.298;2024-03-08T07:10:18;63.15;;;32.83;;
43504;SDS011;29098;48.184;16.298;2024-03-08T07:12:44;60.65;;;29.13;;
43504;SDS011;29098;48.184;16.298;2024-03-08T07:15:10;64.43;;;31.15;;
43504;SDS011;29098;48.184;16.298;2024-03-08T07:17:41;60.78;;;30.52;;
43504;SDS011;29098;48.184;16.298;2024-03-08T07:20:09;54.45;;;28.65;;
43504;SDS011;29098;48.184;16.298;2024-03-08T07:22:37;59.42;;;29.92;;
43504;SDS011;29098;48.184;16.298;2024-03-08T07:25:04;62.10;;;28.70;;
43504;SDS011;29098;48.184;16.298;2024-03-08T07:27:53;56.42;;;28.02;;
43504;SDS011;29098;48.184;16.298;2024-03-08T07:30:20;64.38;;;28.50;;
43504;SDS011;29098;48.184;16.298;2024-03-08T07:35:32;56.17;;;27.65;;
43504;SDS011;29098;48.184;16.298;2024-03-08T07:37:58;47.78;;;25.70;;
43504;SDS011;29098;48.184;16.298;2024-03-08T07:40:25;58.72;;;28.45;;
43504;SDS011;29098;48.184;16.298;2024-03-08T07:42:50;57.50;;;27.52;;
43504;SDS011;29098;48.184;16.298;2024-03-08T07:45:16;55.25;;;27.42;;
43504;SDS011;29098;48.184;16.298;2024-03-08T07:47:42;56.22;;;27.75;;
43504;SDS011;29098;48.184;16.298;2024-03-08T07:50:08;56.83;;;30.58;;
43504;SDS011;29098;48.184;16.298;2024-03-08T07:52:34;58.67;;;27.15;;
43504;SDS011;29098;48.184;16.298;2024-03-08T07:55:01;57.30;;;29.23;;
43504;SDS011;29098;48.184;16.298;2024-03-08T07:57:29;57.08;;;28.85;;
43504;SDS011;29098;48.184;16.298;2024-03-08T07:59:55;66.20;;;27.75;;
43504;SDS011;29098;48.184;16.298;2024-03-08T08:02:21;63.95;;;29.70;;
43504;SDS011;29098;48.184;16.298;2024-03-08T08:04:46;61.35;;;31.60;;
43504;SDS011;29098;48.184;16.298;2024-03-08T08:07:11;63.92;;;30.40;;
43504;SDS011;29098;48.184;16.298;2024-03-08T08:09:37;64.65;;;30.35;;
43504;SDS011;29098;48.184;16.298;2024-03-08T08:12:03;64.18;;;30.45;;
43504;SDS011;29098;48.184;16.298;2024-03-08T08:14:29;71.97;;;32.58;;
43504;SDS011;29098;48.184;16.298;2024-03-08T08:16:55;62.58;;;30.83;;
43504;SDS011;29098;48.184;16.298;2024-03-08T08:19:22;62.13;;;30.88;;
43504;SDS011;29098;48.184;16.298;2024-03-08T08:21:48;69.15;;;29.85;;
43504;SDS011;29098;48.184;16.298;2024-03-08T08:24:13;68.13;;;31.85;;
43504;SDS011;29098;48.184;16.298;2024-03-08T08:26:39;71.28;;;31.10;;
43504;SDS011;29098;48.184;16.298;2024-03-08T08:29:05;62.88;;;30.63;;
43504;SDS011;29098;48.184;16.298;2024-03-08T08:31:31;66.68;;;31.17;;
43504;SDS011;29098;48.184;16.298;2024-03-08T08:33:58;72.03;;;32.53;;
43504;SDS011;29098;48.184;16.298;2024-03-08T08:36:26;68.30;;;30.27;;
43504;SDS011;29098;48.184;16.298;2024-03-08T08:38:54;60.53;;;30.05;;
43504;SDS011;29098;48.184;16.298;2024-03-08T08:41:21;67.93;;;31.55;;
43504;SDS011;29098;48.184;16.298;2024-03-08T08:43:47;69.47;;;31.65;;
43504;SDS011;29098;48.184;16.298;2024-03-08T08:46:16;67.05;;;31.27;;
43504;SDS011;29098;48.184;16.298;2024-03-08T08:48:42;72.28;;;32.83;;
43504;SDS011;29098;48.184;16.298;2024-03-08T08:51:10;68.85;;;32.42;;
43504;SDS011;29098;48.184;16.298;2024-03-08T08:53:39;68.70;;;32.67;;
43504;SDS011;29098;48.184;16.298;2024-03-08T08:56:12;66.38;;;31.55;;
43504;SDS011;29098;48.184;16.298;2024-03-08T08:58:41;73.68;;;33.63;;
43504;SDS011;29098;48.184;16.298;2024-03-08T09:01:08;70.63;;;34.67;;
43504;SDS011;29098;48.184;16.298;2024-03-08T09:03:35;75.85;;;31.15;;
43504;SDS011;29098;48.184;16.298;2024-03-08T09:06:06;80.40;;;33.72;;
43504;SDS011;29098;48.184;16.298;2024-03-08T09:08:37;73.60;;;32.30;;
43504;SDS011;29098;48.184;16.298;2024-03-08T09:11:03;84.90;;;31.23;;
43504;SDS011;29098;48.184;16.298;2024-03-08T09:13:29;76.55;;;34.80;;
43504;SDS011;29098;48.184;16.298;2024-03-08T09:15:54;76.80;;;33.00;;
43504;SDS011;29098;48.184;16.298;2024-03-08T09:18:20;78.45;;;34.95;;
43504;SDS011;29098;48.184;16.298;2024-03-08T09:20:45;74.55;;;33.67;;
43504;SDS011;29098;48.184;16.298;2024-03-08T09:23:12;72.10;;;36.22;;
43504;SDS011;29098;48.184;16.298;2024-03-08T09:25:37;71.47;;;32.85;;
43504;SDS011;29098;48.184;16.298;2024-03-08T09:28:03;68.72;;;28.83;;
43504;SDS011;29098;48.184;16.298;2024-03-08T09:30:28;67.28;;;28.23;;
43504;SDS011;29098;48.184;16.298;2024-03-08T09:32:54;73.15;;;26.83;;
43504;SDS011;29098;48.184;16.298;2024-03-08T09:35:19;62.72;;;28.20;;
43504;SDS011;29098;48.184;16.298;2024-03-08T09:37:45;72.32;;;29.20;;
43504;SDS011;29098;48.184;16.298;2024-03-08T09:40:12;66.68;;;30.27;;
43504;SDS011;29098;48.184;16.298;2024-03-08T09:42:40;65.05;;;30.92;;
43504;SDS011;29098;48.184;16.298;2024-03-08T09:45:10;67.50;;;30.98;;
43504;SDS011;29098;48.184;16.298;2024-03-08T09:47:40;66.32;;;30.95;;
43504;SDS011;29098;48.184;16.298;2024-03-08T09:50:07;68.50;;;29.15;;
43504;SDS011;29098;48.184;16.298;2024-03-08T09:52:37;64.07;;;29.88;;
43504;SDS011;29098;48.184;16.298;2024-03-08T09:55:04;75.53;;;27.63;;
43504;SDS011;29098;48.184;16.298;2024-03-08T09:57:31;81.10;;;32.70;;
43504;SDS011;29098;48.184;16.298;2024-03-08T09:59:57;65.22;;;27.15;;
43504;SDS011;29098;48.184;16.298;2024-03-08T10:02:23;71.78;;;32.70;;
43504;SDS011;29098;48.184;16.298;2024-03-08T10:04:48;63.25;;;29.40;;
43504;SDS011;29098;48.184;16.298;2024-03-08T10:07:18;78.15;;;38.17;;
43504;SDS011;29098;48.184;16.298;2024-03-08T10:09:44;68.88;;;29.13;;
43504;SDS011;29098;48.184;16.298;2024-03-08T10:12:16;67.43;;;27.63;;
43504;SDS011;29098;48.184;16.298;2024-03-08T10:14:42;62.72;;;27.85;;
43504;SDS011;29098;48.184;16.298;2024-03-08T10:17:08;68.95;;;31.02;;
43504;SDS011;29098;48.184;16.298;2024-03-08T10:19:34;61.45;;;27.98;;
43504;SDS011;29098;48.184;16.298;2024-03-08T10:21:59;60.60;;;26.98;;
43504;SDS011;29098;48.184;16.298;2024-03-08T10:24:25;65.65;;;30.33;;
43504;SDS011;29098;48.184;16.298;2024-03-08T10:26:58;62.17;;;26.30;;
43504;SDS011;29098;48.184;16.298;2024-03-08T10:29:29;59.05;;;24.75;;
43504;SDS011;29098;48.184;16.298;2024-03-08T10:31:55;54.40;;;22.08;;
43504;SDS011;29098;48.184;16.298;2024-03-08T10:34:21;55.70;;;22.75;;
43504;SDS011;29098;48.184;16.298;2024-03-08T10:36:50;55.75;;;25.75;;
43504;SDS011;29098;48.184;16.298;2024-03-08T10:39:23;53.15;;;25.23;;
43504;SDS011;29098;48.184;16.298;2024-03-08T10:41:56;48.58;;;23.90;;
43504;SDS011;29098;48.184;16.298;2024-03-08T10:47:03;46.78;;;21.30;;
43504;SDS011;29098;48.184;16.298;2024-03-08T10:52:39;44.45;;;18.70;;
43504;SDS011;29098;48.184;16.298;2024-03-08T10:55:05;39.40;;;18.42;;
43504;SDS011;29098;48.184;16.298;2024-03-08T10:57:37;33.47;;;16.42;;
43504;SDS011;29098;48.184;16.298;2024-03-08T11:00:03;38.22;;;18.67;;
43504;SDS011;29098;48.184;16.298;2024-03-08T11:02:33;35.40;;;16.42;;
43504;SDS011;29098;48.184;16.298;2024-03-08T11:04:58;39.22;;;15.60;;
43504;SDS011;29098;48.184;16.298;2024-03-08T11:07:24;35.35;;;17.88;;
43504;SDS011;29098;48.184;16.298;2024-03-08T11:09:52;37.58;;;17.15;;
43504;SDS011;29098;48.184;16.298;2024-03-08T11:12:21;38.45;;;18.25;;
43504;SDS011;29098;48.184;16.298;2024-03-08T11:14:53;36.65;;;16.25;;
43504;SDS011;29098;48.184;16.298;2024-03-08T11:19:57;35.80;;;16.90;;
43504;SDS011;29098;48.184;16.298;2024-03-08T11:22:32;35.42;;;17.45;;
43504;SDS011;29098;48.184;16.298;2024-03-08T11:25:02;33.88;;;16.05;;
43504;SDS011;29098;48.184;16.298;2024-03-08T11:27:33;37.00;;;17.58;;
43504;SDS011;29098;48.184;16.298;2024-03-08T11:30:02;32.85;;;15.10;;
43504;SDS011;29098;48.184;16.298;2024-03-08T11:35:05;34.83;;;16.48;;
43504;SDS011;29098;48.184;16.298;2024-03-08T11:37:33;29.85;;;14.68;;
43504;SDS011;29098;48.184;16.298;2024-03-08T11:40:02;30.25;;;14.13;;
43504;SDS011;29098;48.184;16.298;2024-03-08T11:42:39;27.00;;;13.57;;
43504;SDS011;29098;48.184;16.298;2024-03-08T11:45:09;24.40;;;12.13;;
43504;SDS011;29098;48.184;16.298;2024-03-08T11:47:36;24.15;;;10.80;;
43504;SDS011;29098;48.184;16.298;2024-03-08T11:50:05;21.00;;;10.70;;
43504;SDS011;29098;48.184;16.298;2024-03-08T11:52:36;21.40;;;11.05;;
43504;SDS011;29098;48.184;16.298;2024-03-08T11:55:02;22.27;;;11.73;;
43504;SDS011;29098;48.184;16.298;2024-03-08T11:57:28;24.73;;;12.73;;
43504;SDS011;29098;48.184;16.298;2024-03-08T11:59:55;24.35;;;11.57;;
43504;SDS011;29098;48.184;16.298;2024-03-08T12:02:31;20.20;;;10.73;;
43504;SDS011;29098;48.184;16.298;2024-03-08T12:04:57;22.13;;;10.65;;
43504;SDS011;29098;48.184;16.298;2024-03-08T12:07:24;18.35;;;9.13;;
43504;SDS011;29098;48.184;16.298;2024-03-08T12:12:47;21.42;;;9.73;;
43504;SDS011;29098;48.184;16.298;2024-03-08T12:15:21;18.27;;;9.90;;
43504;SDS011;29098;48.184;16.298;2024-03-08T12:17:48;20.80;;;12.35;;
43504;SDS011;29098;48.184;16.298;2024-03-08T12:22:43;21.02;;;11.50;;
43504;SDS011;29098;48.184;16.298;2024-03-08T12:25:12;24.00;;;13.43;;
43504;SDS011;29098;48.184;16.298;2024-03-08T12:27:42;27.88;;;12.70;;
43504;SDS011;29098;48.184;16.298;2024-03-08T12:30:44;26.25;;;13.18;;
43504;SDS011;29098;48.184;16.298;2024-03-08T12:33:00;23.30;;;12.02;;
43504;SDS011;29098;48.184;16.298;2024-03-08T12:35:27;20.98;;;12.38;;
43504;SDS011;29098;48.184;16.298;2024-03-08T12:37:55;20.73;;;11.02;;
43504;SDS011;29098;48.184;16.298;2024-03-08T12:40:25;22.73;;;12.15;;
43504;SDS011;29098;48.184;16.298;2024-03-08T12:42:53;21.85;;;12.85;;
43504;SDS011;29098;48.184;16.298;2024-03-08T12:45:20;21.75;;;12.65;;
43504;SDS011;29098;48.184;16.298;2024-03-08T12:47:47;22.17;;;11.75;;
43504;SDS011;29098;48.184;16.298;2024-03-08T12:50:12;24.02;;;13.15;;
43504;SDS011;29098;48.184;16.298;2024-03-08T12:52:38;25.15;;;12.48;;
43504;SDS011;29098;48.184;16.298;2024-03-08T12:55:04;25.27;;;12.48;;
43504;SDS011;29098;48.184;16.298;2024-03-08T12:57:32;29.00;;;13.32;;
43504;SDS011;29098;48.184;16.298;2024-03-08T12:59:59;25.75;;;13.88;;
43504;SDS011;29098;48.184;16.298;2024-03-08T13:02:25;26.30;;;12.93;;
43504;SDS011;29098;48.184;16.298;2024-03-08T13:04:51;24.05;;;12.40;;
43504;SDS011;29098;48.184;16.298;2024-03-08T13:07:22;22.92;;;12.15;;
43504;SDS011;29098;48.184;16.298;2024-03-08T13:09:54;24.85;;;12.70;;
43504;SDS011;29098;48.184;16.298;2024-03-08T13:12:20;23.27;;;11.63;;
43504;SDS011;29098;48.184;16.298;2024-03-08T13:14:47;20.08;;;11.15;;
43504;SDS011;29098;48.184;16.298;2024-03-08T13:17:13;25.75;;;11.30;;
43504;SDS011;29098;48.184;16.298;2024-03-08T13:19:39;19.65;;;11.45;;
43504;SDS011;29098;48.184;16.298;2024-03-08T13:22:05;23.13;;;12.00;;
43504;SDS011;29098;48.184;16.298;2024-03-08T13:24:31;24.63;;;11.50;;
43504;SDS011;29098;48.184;16.298;2024-03-08T13:26:56;24.20;;;12.10;;
43504;SDS011;29098;48.184;16.298;2024-03-08T13:29:23;20.95;;;10.98;;
43504;SDS011;29098;48.184;16.298;2024-03-08T13:31:49;23.02;;;12.43;;
43504;SDS011;29098;48.184;16.298;2024-03-08T13:34:17;21.52;;;12.02;;
43504;SDS011;29098;48.184;16.298;2024-03-08T13:36:43;19.85;;;10.23;;
43504;SDS011;29098;48.184;16.298;2024-03-08T13:39:09;20.52;;;10.48;;
43504;SDS011;29098;48.184;16.298;2024-03-08T13:41:41;17.48;;;9.20;;
43504;SDS011;29098;48.184;16.298;2024-03-08T13:44:07;17.65;;;10.45;;
43504;SDS011;29098;48.184;16.298;2024-03-08T13:46:32;22.13;;;10.52;;
43504;SDS011;29098;48.184;16.298;2024-03-08T13:49:03;18.77;;;9.80;;
43504;SDS011;29098;48.184;16.298;2024-03-08T13:51:33;20.13;;;11.00;;
43504;SDS011;29098;48.184;16.298;2024-03-08T13:53:59;22.50;;;11.00;;
43504;SDS011;29098;48.184;16.298;2024-03-08T13:56:25;20.98;;;12.82;;
43504;SDS011;29098;48.184;16.298;2024-03-08T13:58:56;22.00;;;10.70;;
43504;SDS011;29098;48.184;16.298;2024-03-08T14:01:22;16.90;;;9.18;;
43504;SDS011;29098;48.184;16.298;2024-03-08T14:03:48;19.67;;;10.93;;
43504;SDS011;29098;48.184;16.298;2024-03-08T14:06:13;19.83;;;9.75;;
43504;SDS011;29098;48.184;16.298;2024-03-08T14:08:38;20.83;;;11.18;;
43504;SDS011;29098;48.184;16.298;2024-03-08T14:11:04;18.85;;;10.35;;
43504;SDS011;29098;48.184;16.298;2024-03-08T14:13:43;17.20;;;10.50;;
43504;SDS011;29098;48.184;16.298;2024-03-08T14:16:12;16.35;;;9.68;;
43504;SDS011;29098;48.184;16.298;2024-03-08T14:18:38;17.02;;;9.27;;
43504;SDS011;29098;48.184;16.298;2024-03-08T14:21:04;22.90;;;10.45;;
43504;SDS011;29098;48.184;16.298;2024-03-08T14:23:33;19.02;;;10.20;;
43504;SDS011;29098;48.184;16.298;2024-03-08T14:25:58;17.98;;;10.90;;